sensor_id;sensor_type;location;lat;lon;timestamp;temperature;humidity
770;DHT22;368;48.698;9.116;2022-08-01T00:01:53;17.50;99.30
770;DHT22;368;48.698;9.116;2022-08-01T00:04:20;17.50;99.50
770;DHT22;368;48.698;9.116;2022-08-01T00:06:47;17.40;99.90
770;DHT22;368;48.698;9.116;2022-08-01T00:09:14;17.30;99.90
770;DHT22;368;48.698;9.116;2022-08-01T00:11:42;17.40;99.90
770;DHT22;368;48.698;9.116;2022-08-01T00:14:09;17.40;99.90
770;DHT22;368;48.698;9.116;2022-08-01T00:16:38;17.40;99.90
770;DHT22;368;48.698;9.116;2022-08-01T00:19:05;17.30;99.90
770;DHT22;368;48.698;9.116;2022-08-01T00:21:31;17.20;99.90
770;DHT22;368;48.698;9.116;2022-08-01T00:23:58;17.30;99.90
770;DHT22;368;48.698;9.116;2022-08-01T00:26:25;17.40;99.90
770;DHT22;368;48.698;9.116;2022-08-01T00:28:54;17.40;99.90
770;DHT22;368;48.698;9.116;2022-08-01T00:31:20;17.40;99.90
770;DHT22;368;48.698;9.116;2022-08-01T00:33:47;17.50;99.70
770;DHT22;368;48.698;9.116;2022-08-01T00:36:14;17.70;99.20
770;DHT22;368;48.698;9.116;2022-08-01T00:38:41;17.80;98.90
770;DHT22;368;48.698;9.116;2022-08-01T00:41:08;18.00;98.50
770;DHT22;368;48.698;9.116;2022-08-01T00:43:35;18.00;98.60
770;DHT22;368;48.698;9.116;2022-08-01T00:46:03;17.90;98.40
770;DHT22;368;48.698;9.116;2022-08-01T00:48:30;17.80;98.70
770;DHT22;368;48.698;9.116;2022-08-01T00:50:57;17.80;98.50
770;DHT22;368;48.698;9.116;2022-08-01T00:53:24;17.80;98.60
770;DHT22;368;48.698;9.116;2022-08-01T00:55:52;18.00;98.20
770;DHT22;368;48.698;9.116;2022-08-01T00:58:19;18.20;97.70
770;DHT22;368;48.698;9.116;2022-08-01T01:00:46;18.40;97.40
770;DHT22;368;48.698;9.116;2022-08-01T01:03:14;18.40;97.50
770;DHT22;368;48.698;9.116;2022-08-01T01:05:48;18.20;97.80
770;DHT22;368;48.698;9.116;2022-08-01T01:08:24;18.10;98.10
770;DHT22;368;48.698;9.116;2022-08-01T01:10:56;18.40;97.60
770;DHT22;368;48.698;9.116;2022-08-01T01:13:32;18.20;97.50
770;DHT22;368;48.698;9.116;2022-08-01T01:16:05;18.20;98.00
770;DHT22;368;48.698;9.116;2022-08-01T01:18:37;18.40;97.60
770;DHT22;368;48.698;9.116;2022-08-01T01:21:10;18.20;97.90
770;DHT22;368;48.698;9.116;2022-08-01T01:23:54;18.40;97.60
770;DHT22;368;48.698;9.116;2022-08-01T01:26:31;18.80;97.00
770;DHT22;368;48.698;9.116;2022-08-01T01:29:08;18.90;96.60
770;DHT22;368;48.698;9.116;2022-08-01T01:31:40;18.80;97.00
770;DHT22;368;48.698;9.116;2022-08-01T01:34:09;18.80;97.00
770;DHT22;368;48.698;9.116;2022-08-01T01:36:38;18.90;97.20
770;DHT22;368;48.698;9.116;2022-08-01T01:39:06;18.60;97.20
770;DHT22;368;48.698;9.116;2022-08-01T01:41:34;18.80;97.10
770;DHT22;368;48.698;9.116;2022-08-01T01:44:05;18.80;96.90
770;DHT22;368;48.698;9.116;2022-08-01T01:46:33;18.80;97.00
770;DHT22;368;48.698;9.116;2022-08-01T01:49:01;18.80;97.10
770;DHT22;368;48.698;9.116;2022-08-01T01:51:29;18.90;96.80
770;DHT22;368;48.698;9.116;2022-08-01T01:53:57;19.00;96.70
770;DHT22;368;48.698;9.116;2022-08-01T01:56:26;18.60;97.10
770;DHT22;368;48.698;9.116;2022-08-01T01:58:56;18.50;97.70
770;DHT22;368;48.698;9.116;2022-08-01T02:01:28;18.60;97.30
770;DHT22;368;48.698;9.116;2022-08-01T02:03:56;18.50;97.40
770;DHT22;368;48.698;9.116;2022-08-01T02:06:24;18.60;97.40
770;DHT22;368;48.698;9.116;2022-08-01T02:11:20;18.30;98.10
770;DHT22;368;48.698;9.116;2022-08-01T02:13:52;18.00;98.80
770;DHT22;368;48.698;9.116;2022-08-01T02:16:21;17.80;99.60
770;DHT22;368;48.698;9.116;2022-08-01T02:18:50;17.60;99.60
770;DHT22;368;48.698;9.116;2022-08-01T02:21:23;17.50;99.90
770;DHT22;368;48.698;9.116;2022-08-01T02:23:51;17.40;99.90
770;DHT22;368;48.698;9.116;2022-08-01T02:26:19;17.30;99.90
770;DHT22;368;48.698;9.116;2022-08-01T02:28:52;17.20;99.90
770;DHT22;368;48.698;9.116;2022-08-01T02:31:22;17.20;99.90
770;DHT22;368;48.698;9.116;2022-08-01T02:33:55;17.10;99.90
770;DHT22;368;48.698;9.116;2022-08-01T02:36:26;17.10;99.90
770;DHT22;368;48.698;9.116;2022-08-01T02:38:55;17.00;99.90
770;DHT22;368;48.698;9.116;2022-08-01T02:41:25;17.00;99.90
770;DHT22;368;48.698;9.116;2022-08-01T02:43:55;17.00;99.90
770;DHT22;368;48.698;9.116;2022-08-01T02:46:27;16.90;99.90
770;DHT22;368;48.698;9.116;2022-08-01T02:48:58;17.00;99.90
770;DHT22;368;48.698;9.116;2022-08-01T02:51:27;17.00;99.90
770;DHT22;368;48.698;9.116;2022-08-01T02:53:56;17.00;99.90
770;DHT22;368;48.698;9.116;2022-08-01T02:56:26;16.90;99.90
770;DHT22;368;48.698;9.116;2022-08-01T02:59:04;16.80;99.90
770;DHT22;368;48.698;9.116;2022-08-01T03:01:32;16.70;99.90
770;DHT22;368;48.698;9.116;2022-08-01T03:04:02;16.90;99.90
770;DHT22;368;48.698;9.116;2022-08-01T03:06:31;17.00;99.90
770;DHT22;368;48.698;9.116;2022-08-01T03:09:00;17.40;99.90
770;DHT22;368;48.698;9.116;2022-08-01T03:11:29;17.80;99.90
770;DHT22;368;48.698;9.116;2022-08-01T03:13:59;17.90;99.90
770;DHT22;368;48.698;9.116;2022-08-01T03:16:28;18.00;99.90
770;DHT22;368;48.698;9.116;2022-08-01T03:18:57;18.00;99.90
770;DHT22;368;48.698;9.116;2022-08-01T03:21:30;18.20;99.90
770;DHT22;368;48.698;9.116;2022-08-01T03:23:59;18.10;99.90
770;DHT22;368;48.698;9.116;2022-08-01T03:26:30;18.00;99.90
770;DHT22;368;48.698;9.116;2022-08-01T03:29:02;17.70;99.90
770;DHT22;368;48.698;9.116;2022-08-01T03:31:34;17.60;99.90
770;DHT22;368;48.698;9.116;2022-08-01T03:34:01;17.60;99.90
770;DHT22;368;48.698;9.116;2022-08-01T03:36:32;17.40;99.90
770;DHT22;368;48.698;9.116;2022-08-01T03:39:02;17.40;99.90
770;DHT22;368;48.698;9.116;2022-08-01T03:41:34;17.00;99.90
770;DHT22;368;48.698;9.116;2022-08-01T03:44:09;17.10;99.90
770;DHT22;368;48.698;9.116;2022-08-01T03:46:42;17.00;99.90
770;DHT22;368;48.698;9.116;2022-08-01T03:49:16;16.90;99.90
770;DHT22;368;48.698;9.116;2022-08-01T03:51:48;16.90;99.90
770;DHT22;368;48.698;9.116;2022-08-01T03:54:21;16.70;99.90
770;DHT22;368;48.698;9.116;2022-08-01T03:56:48;16.70;99.90
770;DHT22;368;48.698;9.116;2022-08-01T03:59:19;16.70;99.90
770;DHT22;368;48.698;9.116;2022-08-01T04:01:49;16.80;99.90
770;DHT22;368;48.698;9.116;2022-08-01T04:04:16;16.70;99.90
770;DHT22;368;48.698;9.116;2022-08-01T04:06:43;16.60;99.90
770;DHT22;368;48.698;9.116;2022-08-01T04:09:12;16.60;99.90
770;DHT22;368;48.698;9.116;2022-08-01T04:11:39;16.70;99.90
770;DHT22;368;48.698;9.116;2022-08-01T04:14:06;16.60;99.90
770;DHT22;368;48.698;9.116;2022-08-01T04:16:33;16.60;99.90
770;DHT22;368;48.698;9.116;2022-08-01T04:19:00;16.50;99.90
770;DHT22;368;48.698;9.116;2022-08-01T04:21:29;16.50;99.90
770;DHT22;368;48.698;9.116;2022-08-01T04:24:00;16.50;99.90
770;DHT22;368;48.698;9.116;2022-08-01T04:26:30;16.50;99.90
770;DHT22;368;48.698;9.116;2022-08-01T04:29:00;16.70;99.90
770;DHT22;368;48.698;9.116;2022-08-01T04:31:29;16.60;99.90
770;DHT22;368;48.698;9.116;2022-08-01T04:33:57;16.80;99.90
770;DHT22;368;48.698;9.116;2022-08-01T04:36:25;16.80;99.90
770;DHT22;368;48.698;9.116;2022-08-01T04:38:55;16.80;99.90
770;DHT22;368;48.698;9.116;2022-08-01T04:41:24;16.80;99.90
770;DHT22;368;48.698;9.116;2022-08-01T04:43:54;16.90;99.90
770;DHT22;368;48.698;9.116;2022-08-01T04:46:22;16.90;99.90
770;DHT22;368;48.698;9.116;2022-08-01T04:48:49;16.90;99.90
770;DHT22;368;48.698;9.116;2022-08-01T04:51:17;16.90;99.90
770;DHT22;368;48.698;9.116;2022-08-01T04:53:48;17.00;99.90
770;DHT22;368;48.698;9.116;2022-08-01T04:56:16;17.00;99.90
770;DHT22;368;48.698;9.116;2022-08-01T04:58:44;17.00;99.90
770;DHT22;368;48.698;9.116;2022-08-01T05:01:13;17.00;99.90
770;DHT22;368;48.698;9.116;2022-08-01T05:03:39;17.00;99.90
770;DHT22;368;48.698;9.116;2022-08-01T05:06:06;17.10;99.90
770;DHT22;368;48.698;9.116;2022-08-01T05:08:34;17.20;99.90
770;DHT22;368;48.698;9.116;2022-08-01T05:11:02;17.20;99.90
770;DHT22;368;48.698;9.116;2022-08-01T05:13:29;17.30;99.90
770;DHT22;368;48.698;9.116;2022-08-01T05:15:56;17.50;99.90
770;DHT22;368;48.698;9.116;2022-08-01T05:18:24;17.60;99.90
770;DHT22;368;48.698;9.116;2022-08-01T05:20:52;17.80;99.90
770;DHT22;368;48.698;9.116;2022-08-01T05:23:18;18.10;99.90
770;DHT22;368;48.698;9.116;2022-08-01T05:25:45;18.20;99.90
770;DHT22;368;48.698;9.116;2022-08-01T05:28:13;18.40;99.90
770;DHT22;368;48.698;9.116;2022-08-01T05:30:40;18.60;99.90
770;DHT22;368;48.698;9.116;2022-08-01T05:33:08;18.70;99.90
770;DHT22;368;48.698;9.116;2022-08-01T05:35:36;18.70;99.90
770;DHT22;368;48.698;9.116;2022-08-01T05:38:04;18.70;99.90
770;DHT22;368;48.698;9.116;2022-08-01T05:40:31;18.80;99.90
770;DHT22;368;48.698;9.116;2022-08-01T05:42:58;18.60;99.90
770;DHT22;368;48.698;9.116;2022-08-01T05:45:25;18.70;99.90
770;DHT22;368;48.698;9.116;2022-08-01T05:47:51;19.00;99.90
770;DHT22;368;48.698;9.116;2022-08-01T05:50:18;19.30;99.90
770;DHT22;368;48.698;9.116;2022-08-01T05:52:46;19.50;99.90
770;DHT22;368;48.698;9.116;2022-08-01T05:55:13;19.90;99.90
770;DHT22;368;48.698;9.116;2022-08-01T05:57:40;20.50;99.90
770;DHT22;368;48.698;9.116;2022-08-01T06:00:09;20.80;99.90
770;DHT22;368;48.698;9.116;2022-08-01T06:02:40;21.20;99.90
770;DHT22;368;48.698;9.116;2022-08-01T06:05:08;21.60;99.90
770;DHT22;368;48.698;9.116;2022-08-01T06:07:35;21.70;99.90
770;DHT22;368;48.698;9.116;2022-08-01T06:10:04;21.90;99.90
770;DHT22;368;48.698;9.116;2022-08-01T06:12:32;22.10;99.50
770;DHT22;368;48.698;9.116;2022-08-01T06:15:01;22.30;99.30
770;DHT22;368;48.698;9.116;2022-08-01T06:17:29;22.30;99.00
770;DHT22;368;48.698;9.116;2022-08-01T06:19:56;22.20;99.20
770;DHT22;368;48.698;9.116;2022-08-01T06:22:24;22.30;98.90
770;DHT22;368;48.698;9.116;2022-08-01T06:24:50;22.40;98.80
770;DHT22;368;48.698;9.116;2022-08-01T06:27:19;22.30;98.30
770;DHT22;368;48.698;9.116;2022-08-01T06:29:45;22.50;98.60
770;DHT22;368;48.698;9.116;2022-08-01T06:32:12;22.40;98.10
770;DHT22;368;48.698;9.116;2022-08-01T06:34:39;22.30;98.60
770;DHT22;368;48.698;9.116;2022-08-01T06:37:06;22.80;98.40
770;DHT22;368;48.698;9.116;2022-08-01T06:39:33;23.30;97.40
770;DHT22;368;48.698;9.116;2022-08-01T06:42:00;23.60;96.80
770;DHT22;368;48.698;9.116;2022-08-01T06:44:28;23.60;96.50
770;DHT22;368;48.698;9.116;2022-08-01T06:46:56;23.60;96.10
770;DHT22;368;48.698;9.116;2022-08-01T06:49:23;23.10;96.60
770;DHT22;368;48.698;9.116;2022-08-01T06:51:50;23.40;96.60
770;DHT22;368;48.698;9.116;2022-08-01T06:54:17;23.50;96.50
770;DHT22;368;48.698;9.116;2022-08-01T06:56:44;23.50;96.60
770;DHT22;368;48.698;9.116;2022-08-01T06:59:11;23.50;96.30
770;DHT22;368;48.698;9.116;2022-08-01T07:01:39;23.90;96.30
770;DHT22;368;48.698;9.116;2022-08-01T07:04:05;24.20;95.90
770;DHT22;368;48.698;9.116;2022-08-01T07:06:33;24.80;94.50
770;DHT22;368;48.698;9.116;2022-08-01T07:09:01;24.70;94.20
770;DHT22;368;48.698;9.116;2022-08-01T07:11:29;24.70;94.00
770;DHT22;368;48.698;9.116;2022-08-01T07:13:55;24.60;93.50
770;DHT22;368;48.698;9.116;2022-08-01T07:16:22;24.80;92.90
770;DHT22;368;48.698;9.116;2022-08-01T07:18:50;25.20;92.20
770;DHT22;368;48.698;9.116;2022-08-01T07:21:19;25.20;92.40
770;DHT22;368;48.698;9.116;2022-08-01T07:23:45;25.70;91.50
770;DHT22;368;48.698;9.116;2022-08-01T07:26:12;25.40;91.30
770;DHT22;368;48.698;9.116;2022-08-01T07:28:39;25.80;90.90
770;DHT22;368;48.698;9.116;2022-08-01T07:31:06;26.00;90.70
770;DHT22;368;48.698;9.116;2022-08-01T07:33:33;26.40;90.10
770;DHT22;368;48.698;9.116;2022-08-01T07:36:01;26.10;89.20
770;DHT22;368;48.698;9.116;2022-08-01T07:38:29;25.70;90.20
770;DHT22;368;48.698;9.116;2022-08-01T07:40:55;26.00;89.50
770;DHT22;368;48.698;9.116;2022-08-01T07:43:24;26.20;89.30
770;DHT22;368;48.698;9.116;2022-08-01T07:45:51;26.40;88.90
770;DHT22;368;48.698;9.116;2022-08-01T07:48:18;26.10;89.00
770;DHT22;368;48.698;9.116;2022-08-01T07:50:46;26.30;88.60
770;DHT22;368;48.698;9.116;2022-08-01T07:53:14;26.30;87.50
770;DHT22;368;48.698;9.116;2022-08-01T07:55:40;26.40;88.20
770;DHT22;368;48.698;9.116;2022-08-01T07:58:07;26.90;87.20
770;DHT22;368;48.698;9.116;2022-08-01T08:00:34;27.80;84.60
770;DHT22;368;48.698;9.116;2022-08-01T08:03:01;27.90;84.50
770;DHT22;368;48.698;9.116;2022-08-01T08:05:28;27.50;84.40
770;DHT22;368;48.698;9.116;2022-08-01T08:07:54;27.90;83.70
770;DHT22;368;48.698;9.116;2022-08-01T08:10:23;28.10;81.80
770;DHT22;368;48.698;9.116;2022-08-01T08:12:49;27.60;83.50
770;DHT22;368;48.698;9.116;2022-08-01T08:15:16;27.90;83.80
770;DHT22;368;48.698;9.116;2022-08-01T08:17:43;28.40;80.90
770;DHT22;368;48.698;9.116;2022-08-01T08:20:10;26.90;83.90
770;DHT22;368;48.698;9.116;2022-08-01T08:22:37;26.50;85.30
770;DHT22;368;48.698;9.116;2022-08-01T08:25:05;25.80;86.70
770;DHT22;368;48.698;9.116;2022-08-01T08:27:34;26.10;88.20
770;DHT22;368;48.698;9.116;2022-08-01T08:30:01;27.20;85.30
770;DHT22;368;48.698;9.116;2022-08-01T08:32:28;27.40;84.10
770;DHT22;368;48.698;9.116;2022-08-01T08:34:55;26.80;86.10
770;DHT22;368;48.698;9.116;2022-08-01T08:37:23;26.60;86.60
770;DHT22;368;48.698;9.116;2022-08-01T08:39:52;26.50;86.00
770;DHT22;368;48.698;9.116;2022-08-01T08:42:19;26.30;87.50
770;DHT22;368;48.698;9.116;2022-08-01T08:44:48;27.50;84.10
770;DHT22;368;48.698;9.116;2022-08-01T08:47:17;27.60;82.20
770;DHT22;368;48.698;9.116;2022-08-01T08:49:45;28.50;83.20
770;DHT22;368;48.698;9.116;2022-08-01T08:52:12;28.90;81.70
770;DHT22;368;48.698;9.116;2022-08-01T08:54:41;27.90;80.20
770;DHT22;368;48.698;9.116;2022-08-01T08:57:09;26.80;84.80
770;DHT22;368;48.698;9.116;2022-08-01T08:59:38;27.80;84.20
770;DHT22;368;48.698;9.116;2022-08-01T09:02:09;28.40;80.20
770;DHT22;368;48.698;9.116;2022-08-01T09:04:38;28.10;80.80
770;DHT22;368;48.698;9.116;2022-08-01T09:07:06;28.90;78.30
770;DHT22;368;48.698;9.116;2022-08-01T09:09:33;30.20;76.50
770;DHT22;368;48.698;9.116;2022-08-01T09:12:00;29.10;76.30
770;DHT22;368;48.698;9.116;2022-08-01T09:14:27;29.00;77.80
770;DHT22;368;48.698;9.116;2022-08-01T09:17:00;28.10;79.70
770;DHT22;368;48.698;9.116;2022-08-01T09:19:36;27.40;81.00
770;DHT22;368;48.698;9.116;2022-08-01T09:22:05;26.80;83.70
770;DHT22;368;48.698;9.116;2022-08-01T09:24:34;26.60;83.40
770;DHT22;368;48.698;9.116;2022-08-01T09:27:16;26.40;83.90
770;DHT22;368;48.698;9.116;2022-08-01T09:29:43;27.00;84.90
770;DHT22;368;48.698;9.116;2022-08-01T09:32:12;28.10;81.00
770;DHT22;368;48.698;9.116;2022-08-01T09:34:40;30.30;77.70
770;DHT22;368;48.698;9.116;2022-08-01T09:37:06;29.70;76.60
770;DHT22;368;48.698;9.116;2022-08-01T09:39:35;28.50;78.30
770;DHT22;368;48.698;9.116;2022-08-01T09:42:20;28.40;79.40
770;DHT22;368;48.698;9.116;2022-08-01T09:44:49;28.80;77.80
770;DHT22;368;48.698;9.116;2022-08-01T09:47:16;30.50;75.50
770;DHT22;368;48.698;9.116;2022-08-01T09:49:55;31.30;70.20
770;DHT22;368;48.698;9.116;2022-08-01T09:52:24;30.50;72.00
770;DHT22;368;48.698;9.116;2022-08-01T09:54:53;29.80;73.00
770;DHT22;368;48.698;9.116;2022-08-01T09:57:20;29.90;75.20
770;DHT22;368;48.698;9.116;2022-08-01T09:59:49;30.10;73.00
770;DHT22;368;48.698;9.116;2022-08-01T10:02:27;29.20;74.60
770;DHT22;368;48.698;9.116;2022-08-01T10:04:56;29.00;77.30
770;DHT22;368;48.698;9.116;2022-08-01T10:07:23;28.50;77.50
770;DHT22;368;48.698;9.116;2022-08-01T10:09:49;28.10;80.50
770;DHT22;368;48.698;9.116;2022-08-01T10:12:18;28.90;77.40
770;DHT22;368;48.698;9.116;2022-08-01T10:14:48;30.20;73.30
770;DHT22;368;48.698;9.116;2022-08-01T10:17:16;30.60;71.40
770;DHT22;368;48.698;9.116;2022-08-01T10:19:44;28.50;75.50
770;DHT22;368;48.698;9.116;2022-08-01T10:22:14;28.40;76.60
770;DHT22;368;48.698;9.116;2022-08-01T10:24:43;29.80;73.60
770;DHT22;368;48.698;9.116;2022-08-01T10:27:11;31.00;72.20
770;DHT22;368;48.698;9.116;2022-08-01T10:29:41;30.80;73.60
770;DHT22;368;48.698;9.116;2022-08-01T10:32:10;29.20;75.60
770;DHT22;368;48.698;9.116;2022-08-01T10:34:37;28.70;78.30
770;DHT22;368;48.698;9.116;2022-08-01T10:37:05;28.40;77.70
770;DHT22;368;48.698;9.116;2022-08-01T10:39:33;28.10;80.30
770;DHT22;368;48.698;9.116;2022-08-01T10:42:01;30.00;77.30
770;DHT22;368;48.698;9.116;2022-08-01T10:44:30;31.60;72.50
770;DHT22;368;48.698;9.116;2022-08-01T10:47:01;32.30;71.10
770;DHT22;368;48.698;9.116;2022-08-01T10:49:31;33.20;67.50
770;DHT22;368;48.698;9.116;2022-08-01T10:52:02;33.00;66.00
770;DHT22;368;48.698;9.116;2022-08-01T10:54:29;33.20;64.80
770;DHT22;368;48.698;9.116;2022-08-01T10:57:06;31.70;67.30
770;DHT22;368;48.698;9.116;2022-08-01T10:59:33;31.70;69.80
770;DHT22;368;48.698;9.116;2022-08-01T11:02:07;32.90;65.30
770;DHT22;368;48.698;9.116;2022-08-01T11:04:54;31.20;67.80
770;DHT22;368;48.698;9.116;2022-08-01T11:07:24;29.80;72.40
770;DHT22;368;48.698;9.116;2022-08-01T11:10:04;28.50;74.80
770;DHT22;368;48.698;9.116;2022-08-01T11:12:40;28.00;77.10
770;DHT22;368;48.698;9.116;2022-08-01T11:15:18;28.10;76.40
770;DHT22;368;48.698;9.116;2022-08-01T11:17:51;27.50;77.90
770;DHT22;368;48.698;9.116;2022-08-01T11:20:19;26.60;79.80
770;DHT22;368;48.698;9.116;2022-08-01T11:26:15;26.80;80.70
770;DHT22;368;48.698;9.116;2022-08-01T11:28:45;26.80;80.40
770;DHT22;368;48.698;9.116;2022-08-01T11:31:29;27.00;80.50
770;DHT22;368;48.698;9.116;2022-08-01T11:33:57;27.10;80.70
770;DHT22;368;48.698;9.116;2022-08-01T11:36:25;26.80;81.80
770;DHT22;368;48.698;9.116;2022-08-01T11:39:11;27.00;81.70
770;DHT22;368;48.698;9.116;2022-08-01T11:41:38;26.90;81.40
770;DHT22;368;48.698;9.116;2022-08-01T11:44:10;26.80;82.50
770;DHT22;368;48.698;9.116;2022-08-01T11:46:55;26.50;82.20
770;DHT22;368;48.698;9.116;2022-08-01T11:49:32;26.30;82.60
770;DHT22;368;48.698;9.116;2022-08-01T11:52:02;26.10;83.30
770;DHT22;368;48.698;9.116;2022-08-01T11:54:31;26.10;83.50
770;DHT22;368;48.698;9.116;2022-08-01T11:57:00;26.10;83.50
770;DHT22;368;48.698;9.116;2022-08-01T11:59:35;25.80;82.90
770;DHT22;368;48.698;9.116;2022-08-01T12:02:02;26.10;83.20
770;DHT22;368;48.698;9.116;2022-08-01T12:04:45;26.60;82.00
770;DHT22;368;48.698;9.116;2022-08-01T12:07:12;26.80;81.00
770;DHT22;368;48.698;9.116;2022-08-01T12:09:39;26.90;79.80
770;DHT22;368;48.698;9.116;2022-08-01T12:12:06;26.70;79.30
770;DHT22;368;48.698;9.116;2022-08-01T12:14:35;26.40;81.20
770;DHT22;368;48.698;9.116;2022-08-01T12:17:02;26.20;82.80
770;DHT22;368;48.698;9.116;2022-08-01T12:19:29;26.40;83.40
770;DHT22;368;48.698;9.116;2022-08-01T12:22:06;26.40;82.70
770;DHT22;368;48.698;9.116;2022-08-01T12:24:41;26.40;81.70
770;DHT22;368;48.698;9.116;2022-08-01T12:27:09;27.50;81.20
770;DHT22;368;48.698;9.116;2022-08-01T12:29:40;30.10;76.80
770;DHT22;368;48.698;9.116;2022-08-01T12:32:25;33.30;66.30
770;DHT22;368;48.698;9.116;2022-08-01T12:34:54;34.30;63.60
770;DHT22;368;48.698;9.116;2022-08-01T12:37:23;33.70;62.00
770;DHT22;368;48.698;9.116;2022-08-01T12:39:50;35.30;59.10
770;DHT22;368;48.698;9.116;2022-08-01T12:42:17;34.60;58.00
770;DHT22;368;48.698;9.116;2022-08-01T12:44:51;31.70;62.40
770;DHT22;368;48.698;9.116;2022-08-01T12:47:18;29.50;68.70
770;DHT22;368;48.698;9.116;2022-08-01T12:49:47;29.10;69.90
770;DHT22;368;48.698;9.116;2022-08-01T12:52:14;28.50;72.00
770;DHT22;368;48.698;9.116;2022-08-01T12:55:11;28.40;73.40
770;DHT22;368;48.698;9.116;2022-08-01T12:57:40;28.90;74.00
770;DHT22;368;48.698;9.116;2022-08-01T13:00:15;30.00;70.70
770;DHT22;368;48.698;9.116;2022-08-01T13:02:44;29.90;70.20
770;DHT22;368;48.698;9.116;2022-08-01T13:05:12;29.70;70.10
770;DHT22;368;48.698;9.116;2022-08-01T13:07:44;31.60;68.40
770;DHT22;368;48.698;9.116;2022-08-01T13:10:12;34.00;61.80
770;DHT22;368;48.698;9.116;2022-08-01T13:12:50;35.30;59.30
770;DHT22;368;48.698;9.116;2022-08-01T13:15:26;35.10;58.80
770;DHT22;368;48.698;9.116;2022-08-01T13:17:53;34.40;58.80
770;DHT22;368;48.698;9.116;2022-08-01T13:20:28;31.40;61.70
770;DHT22;368;48.698;9.116;2022-08-01T13:22:55;30.80;65.10
770;DHT22;368;48.698;9.116;2022-08-01T13:25:22;30.60;65.10
770;DHT22;368;48.698;9.116;2022-08-01T13:27:49;29.80;67.20
770;DHT22;368;48.698;9.116;2022-08-01T13:30:37;29.10;68.50
770;DHT22;368;48.698;9.116;2022-08-01T13:33:04;28.80;69.30
770;DHT22;368;48.698;9.116;2022-08-01T13:35:32;29.00;68.70
770;DHT22;368;48.698;9.116;2022-08-01T13:37:58;29.10;70.60
770;DHT22;368;48.698;9.116;2022-08-01T13:40:27;31.20;66.60
770;DHT22;368;48.698;9.116;2022-08-01T13:42:54;34.00;60.30
770;DHT22;368;48.698;9.116;2022-08-01T13:45:22;33.80;58.80
770;DHT22;368;48.698;9.116;2022-08-01T13:47:50;34.90;57.40
770;DHT22;368;48.698;9.116;2022-08-01T13:50:17;34.00;58.50
770;DHT22;368;48.698;9.116;2022-08-01T13:52:44;33.90;58.10
770;DHT22;368;48.698;9.116;2022-08-01T13:55:11;32.00;61.90
770;DHT22;368;48.698;9.116;2022-08-01T13:57:38;30.00;66.40
770;DHT22;368;48.698;9.116;2022-08-01T14:00:07;29.60;68.40
770;DHT22;368;48.698;9.116;2022-08-01T14:02:35;29.30;68.40
770;DHT22;368;48.698;9.116;2022-08-01T14:05:04;29.50;67.50
770;DHT22;368;48.698;9.116;2022-08-01T14:07:31;29.70;66.30
770;DHT22;368;48.698;9.116;2022-08-01T14:09:59;29.20;67.60
770;DHT22;368;48.698;9.116;2022-08-01T14:12:26;28.60;70.30
770;DHT22;368;48.698;9.116;2022-08-01T14:14:54;29.80;68.50
770;DHT22;368;48.698;9.116;2022-08-01T14:17:22;30.40;66.10
770;DHT22;368;48.698;9.116;2022-08-01T14:19:49;29.80;66.20
770;DHT22;368;48.698;9.116;2022-08-01T14:22:17;30.20;66.40
770;DHT22;368;48.698;9.116;2022-08-01T14:24:44;30.40;65.10
770;DHT22;368;48.698;9.116;2022-08-01T14:27:11;31.50;61.10
770;DHT22;368;48.698;9.116;2022-08-01T14:29:38;33.00;59.40
770;DHT22;368;48.698;9.116;2022-08-01T14:32:06;33.30;58.30
770;DHT22;368;48.698;9.116;2022-08-01T14:34:32;33.60;59.10
770;DHT22;368;48.698;9.116;2022-08-01T14:36:59;34.10;58.10
770;DHT22;368;48.698;9.116;2022-08-01T14:39:27;32.80;58.30
770;DHT22;368;48.698;9.116;2022-08-01T14:41:56;32.00;61.00
770;DHT22;368;48.698;9.116;2022-08-01T14:44:23;31.10;62.20
770;DHT22;368;48.698;9.116;2022-08-01T14:46:50;30.20;64.50
770;DHT22;368;48.698;9.116;2022-08-01T14:49:16;30.20;65.90
770;DHT22;368;48.698;9.116;2022-08-01T14:51:45;31.40;64.20
770;DHT22;368;48.698;9.116;2022-08-01T14:54:12;31.30;63.10
770;DHT22;368;48.698;9.116;2022-08-01T14:56:40;31.60;61.00
770;DHT22;368;48.698;9.116;2022-08-01T14:59:07;31.00;63.20
770;DHT22;368;48.698;9.116;2022-08-01T15:01:34;30.30;64.90
770;DHT22;368;48.698;9.116;2022-08-01T15:04:01;29.80;64.30
770;DHT22;368;48.698;9.116;2022-08-01T15:06:28;30.20;63.90
770;DHT22;368;48.698;9.116;2022-08-01T15:08:55;30.40;63.90
770;DHT22;368;48.698;9.116;2022-08-01T15:11:21;29.60;64.50
770;DHT22;368;48.698;9.116;2022-08-01T15:13:49;29.30;66.00
770;DHT22;368;48.698;9.116;2022-08-01T15:16:36;29.40;66.50
770;DHT22;368;48.698;9.116;2022-08-01T15:19:04;29.60;66.20
770;DHT22;368;48.698;9.116;2022-08-01T15:21:30;29.10;66.30
770;DHT22;368;48.698;9.116;2022-08-01T15:23:57;28.70;67.60
770;DHT22;368;48.698;9.116;2022-08-01T15:26:24;28.90;68.10
770;DHT22;368;48.698;9.116;2022-08-01T15:28:54;28.90;68.60
770;DHT22;368;48.698;9.116;2022-08-01T15:31:23;29.00;68.10
770;DHT22;368;48.698;9.116;2022-08-01T15:33:54;28.80;68.80
770;DHT22;368;48.698;9.116;2022-08-01T15:41:37;28.90;69.00
770;DHT22;368;48.698;9.116;2022-08-01T15:44:05;28.90;67.50
770;DHT22;368;48.698;9.116;2022-08-01T15:46:32;28.90;66.90
770;DHT22;368;48.698;9.116;2022-08-01T15:49:02;28.80;68.50
770;DHT22;368;48.698;9.116;2022-08-01T15:51:29;28.50;67.90
770;DHT22;368;48.698;9.116;2022-08-01T15:53:56;28.70;68.40
770;DHT22;368;48.698;9.116;2022-08-01T15:56:23;28.30;69.10
770;DHT22;368;48.698;9.116;2022-08-01T15:58:50;28.30;69.10
770;DHT22;368;48.698;9.116;2022-08-01T16:01:18;28.40;68.50
770;DHT22;368;48.698;9.116;2022-08-01T16:03:46;28.10;70.00
770;DHT22;368;48.698;9.116;2022-08-01T16:06:13;28.10;70.30
770;DHT22;368;48.698;9.116;2022-08-01T16:08:40;28.00;69.40
770;DHT22;368;48.698;9.116;2022-08-01T16:11:08;27.70;69.30
770;DHT22;368;48.698;9.116;2022-08-01T16:13:35;27.50;70.10
770;DHT22;368;48.698;9.116;2022-08-01T16:16:02;27.30;71.40
770;DHT22;368;48.698;9.116;2022-08-01T16:18:30;27.30;71.40
770;DHT22;368;48.698;9.116;2022-08-01T16:20:57;27.20;71.00
770;DHT22;368;48.698;9.116;2022-08-01T16:23:24;27.00;71.00
770;DHT22;368;48.698;9.116;2022-08-01T16:25:51;26.80;71.90
770;DHT22;368;48.698;9.116;2022-08-01T16:28:19;26.80;71.80
770;DHT22;368;48.698;9.116;2022-08-01T16:30:46;27.00;72.30
770;DHT22;368;48.698;9.116;2022-08-01T16:33:13;26.80;71.80
770;DHT22;368;48.698;9.116;2022-08-01T16:35:41;26.80;72.10
770;DHT22;368;48.698;9.116;2022-08-01T16:38:10;26.90;72.10
770;DHT22;368;48.698;9.116;2022-08-01T16:40:37;26.70;73.60
770;DHT22;368;48.698;9.116;2022-08-01T16:43:04;26.50;73.40
770;DHT22;368;48.698;9.116;2022-08-01T16:45:31;26.50;73.90
770;DHT22;368;48.698;9.116;2022-08-01T16:47:57;26.50;73.70
770;DHT22;368;48.698;9.116;2022-08-01T16:50:24;26.50;75.00
770;DHT22;368;48.698;9.116;2022-08-01T16:52:52;26.20;74.80
770;DHT22;368;48.698;9.116;2022-08-01T16:55:19;26.30;75.40
770;DHT22;368;48.698;9.116;2022-08-01T16:57:47;26.30;74.40